The Norm — WDH4306 — position and weather

sailwx.info

Track history (hours):
 
Tides and Currents Weather Stations Pressure Air Temp Water Temp Dewpoint Dewpoint Depression Visibility Wind Speed Wind Dir Waves Ship Positions

The Norm

Owner: Hoglund, Bruce N, Green Cove Springs, FL. More information available from US FCC via Universal Licensing System and Coast Guard Vessel Documentation Center.

Last reported at 2018-Mar-30 06:56 UTC. Time now 2018-Jun-24 05:03 UTC.
Position N 26°18' W 079°59'.
Warning: this ship's position is months out of date.

Length 13 m.

Type: Sailing vessel. MMSI: 367616350.

Date/timePositionNaut miles runAvg speedWind from/ knotsBaromVisibWave heightAir tempDewpointWater temp
2018-Mar-30 06:56N 26°18' W 079°59'3 7.0
2018-Mar-30 06:28N 26°14' W 079°59'4 7.5
2018-Mar-30 05:58N 26°11' W 079°58'4 7.8
2018-Mar-30 05:27N 26°07' W 079°58'4 7.9
2018-Mar-30 04:57N 26°03' W 079°58'4 7.8
2018-Mar-30 04:27N 25°59' W 079°59'4 7.4
2018-Mar-30 03:55N 25°55' W 079°59'3 6.3
2018-Mar-30 03:26N 25°52' W 079°58'2 5.7
2018-Mar-30 03:00N 25°49' W 079°58'3 5.2
2018-Mar-30 02:28N 25°47' W 079°58'2 5.0
2018-Mar-30 02:00N 25°44' W 079°58'3 5.3
2018-Mar-30 01:30N 25°42' W 079°58'  
Track history (hours):
 
Tides and Currents Weather Stations Pressure Air Temp Water Temp Dewpoint Dewpoint Depression Visibility Wind Speed Wind Dir Waves Ship Positions

The Norm

Owner: Hoglund, Bruce N, Green Cove Springs, FL. More information available from US FCC via Universal Licensing System and Coast Guard Vessel Documentation Center.

Last reported at 2018-Mar-30 06:56 UTC. Time now 2018-Jun-24 05:03 UTC.
Position N 26°18' W 079°59'.
Warning: this ship's position is months out of date.

Length 13 m.

Type: Sailing vessel. MMSI: 367616350.

Date/timePositionNaut miles runAvg speedWind from/ knotsBaromVisibWave heightAir tempDewpointWater temp
2018-Mar-30 06:56N 26°18' W 079°59'3 7.0
2018-Mar-30 06:28N 26°14' W 079°59'4 7.5
2018-Mar-30 05:58N 26°11' W 079°58'4 7.8
2018-Mar-30 05:27N 26°07' W 079°58'4 7.9
2018-Mar-30 04:57N 26°03' W 079°58'4 7.8
2018-Mar-30 04:27N 25°59' W 079°59'4 7.4
2018-Mar-30 03:55N 25°55' W 079°59'3 6.3
2018-Mar-30 03:26N 25°52' W 079°58'2 5.7
2018-Mar-30 03:00N 25°49' W 079°58'3 5.2
2018-Mar-30 02:28N 25°47' W 079°58'2 5.0
2018-Mar-30 02:00N 25°44' W 079°58'3 5.3
2018-Mar-30 01:30N 25°42' W 079°58'  

Dump ship's entire track history